Latest Weather Observations for Broken Hill Airport

IDN60801

Issued at 10:05 pm EST Monday 28 July 2014 (issued every 30 minutes, with the page automatically refreshed every 10 minutes)

About weather observations | Map of weather stations | Latest weather observations for NSW | Other Formats
Station Details ID: 047048 Name: BROKEN HILL AIRPORT AWS Lat: -32.00 Lon: 141.47 Height: 281.3 m
Data from the previous 72 hours. | See also: Recent months for locations in New South Wales
Date/Time
EST
Temp
°C
App
Temp
°C
Dew
Point
Rel
Hum
%
Delta-T
°C
Wind Press
QNH
hPa
Press
MSL
hPa
Rain
since 9 am
mm
Dir
 
Spd
km/h
Gust
km/h
Spd
kts
Gust
kts
28/10:00pm 15.6 11.0 -1.0 32 7.0 N 13 17 7 9 1019.9 - 0.0
28/09:30pm 15.4 10.4 -1.2 32 6.9 NNW 15 20 8 11 1019.6 1019.8 0.0
28/09:00pm 15.8 11.2 -1.3 31 7.2 N 13 17 7 9 1019.6 - 0.0
28/08:30pm 15.8 11.2 -0.8 32 7.1 NNW 13 17 7 9 1019.5 - 0.0
28/08:00pm 15.9 11.7 -0.8 32 7.1 NNW 11 15 6 8 1019.4 - 0.0
28/07:30pm 16.3 11.7 -0.8 31 7.3 NNW 13 17 7 9 1019.1 - 0.0
28/07:00pm 16.4 12.2 -0.8 31 7.3 NNW 11 15 6 8 1018.9 - 0.0
28/06:30pm 17.1 12.6 -0.6 30 7.6 NNW 13 19 7 10 1018.8 1019.1 0.0
28/06:00pm 17.8 13.2 -0.9 28 8.1 NW 13 20 7 11 1018.7 - 0.0
28/05:30pm 19.5 13.8 -1.0 25 9.0 NW 19 22 10 12 1018.7 - 0.0
28/05:00pm 20.1 14.2 -1.1 24 9.3 NW 20 28 11 15 1018.5 - 0.0
28/04:30pm 20.7 14.8 -0.6 24 9.5 NW 20 32 11 17 1018.5 - 0.0
28/04:00pm 20.7 13.7 -0.6 24 9.5 NW 26 35 14 19 1018.5 - 0.0
28/03:30pm 20.9 14.7 -0.4 24 9.5 NW 22 32 12 17 1018.6 1018.9 0.0
28/03:00pm 20.6 14.0 -0.7 24 9.5 WNW 24 35 13 19 1018.8 - 0.0
28/02:30pm 20.4 13.6 -2.0 22 9.7 NW 24 33 13 18 1019.0 - 0.0
28/02:00pm 20.3 13.5 -1.5 23 9.5 NW 24 33 13 18 1019.5 - 0.0
28/01:30pm 19.6 13.1 -2.1 23 9.3 NNW 22 33 12 18 1020.0 - 0.0
28/01:00pm 19.3 11.7 -2.3 23 9.2 NNW 28 35 15 19 1020.6 - 0.0
28/12:30pm 19.2 12.3 -2.4 23 9.1 NW 24 39 13 21 1021.1 1021.4 0.0
28/12:00pm 18.8 11.3 -1.6 25 8.8 NNW 28 37 15 20 1021.6 - 0.0
28/11:30am 18.1 10.2 -1.7 26 8.4 NNW 30 41 16 22 1021.9 - 0.0
28/11:00am 17.7 9.4 -1.5 27 8.2 NNW 32 41 17 22 1022.0 - 0.0
28/10:30am 17.1 9.6 -1.1 29 7.8 NNW 28 39 15 21 1022.2 - 0.0
28/10:00am 16.3 9.2 -1.3 30 7.4 NNW 26 39 14 21 1022.2 - 0.0
28/09:30am 15.5 8.5 -0.7 33 6.8 NNW 26 35 14 19 1022.1 1022.4 0.0
28/09:00am 14.2 7.9 -1.0 35 6.3 NNW 22 33 12 18 1022.0 - 0.0
28/08:30am 12.8 6.5 -1.1 38 5.7 NNW 22 30 12 16 1021.8 - 0.0
28/08:00am 11.5 5.5 -1.3 41 5.2 NNW 20 28 11 15 1021.8 - 0.0
28/07:30am 10.9 5.1 -1.5 42 4.9 NNW 19 24 10 13 1021.6 - 0.0
28/07:00am 10.8 5.3 -1.9 41 5.0 NNW 17 24 9 13 1021.4 - 0.0
28/06:30am 10.9 5.8 -1.8 41 5.0 NW 15 22 8 12 1021.4 1021.7 0.0
28/06:00am 11.1 5.7 -1.6 41 5.1 NNW 17 24 9 13 1021.4 - 0.0
28/05:30am 11.1 5.7 -1.6 41 5.1 NNW 17 20 9 11 1021.3 - 0.0
28/05:00am 11.8 5.0 -1.7 39 5.4 NNW 24 35 13 19 1021.4 - 0.0
28/04:30am 11.9 5.9 -1.6 39 5.4 NNW 20 28 11 15 1021.4 - 0.0
28/04:00am 11.7 5.9 -1.8 39 5.4 NNW 19 24 10 13 1021.5 - 0.0
28/03:30am 11.7 6.2 -1.8 39 5.4 NNW 17 20 9 11 1021.6 1021.9 0.0
28/03:00am 12.1 6.6 -2.1 37 5.7 NNW 17 24 9 13 1021.8 - 0.0
28/02:30am 12.3 6.8 -2.3 36 5.8 NNW 17 24 9 13 1021.8 - 0.0
28/02:00am 12.4 7.3 -1.9 37 5.7 N 15 19 8 10 1022.0 - 0.0
28/01:30am 12.1 7.4 -1.8 38 5.6 N 13 17 7 9 1022.0 - 0.0
28/01:00am 11.0 6.8 -1.1 43 4.9 NNW 11 13 6 7 1022.5 - 0.0
28/12:55am 10.9 6.8 -0.5 45 4.6 NNW 11 15 6 8 1022.6 - 0.0
28/12:30am 5.9 2.1 -0.8 62 2.6 NNW 9 11 5 6 1022.8 1023.1 0.0
28/12:00am 4.8 0.9 -1.8 62 2.4 N 9 11 5 6 1022.7 - 0.0
 
Date/Time
EST
Temp
°C
App
Temp
°C
Dew
Point
Rel
Hum
%
Delta-T
°C
Wind Press
QNH
hPa
Press
MSL
hPa
Rain
since 9 am
mm
Dir
 
Spd
km/h
Gust
km/h
Spd
kts
Gust
kts
27/11:30pm 4.8 1.2 -1.8 62 2.4 NNE 7 9 4 5 1023.2 - 0.0
27/11:17pm 5.5 1.3 -3.8 51 3.3 N 9 11 5 6 1023.0 - 0.0
27/11:00pm 11.0 7.3 -0.2 46 4.6 N 9 11 5 6 1023.2 - 0.0
27/10:30pm 6.5 2.4 -2.9 51 3.4 N 9 11 5 6 1023.3 - 0.0
27/10:26pm 7.0 2.8 -3.5 47 3.8 N 9 9 5 5 1023.3 - 0.0
27/10:00pm 12.0 7.8 -1.2 40 5.4 N 11 15 6 8 1023.5 - 0.0
27/09:30pm 12.3 8.4 -1.2 39 5.5 N 9 11 5 6 1023.6 1023.9 0.0
27/09:00pm 12.7 8.9 -0.9 39 5.6 N 9 11 5 6 1023.7 - 0.0
27/08:30pm 11.8 8.1 0.0 44 4.9 NNW 9 13 5 7 1023.9 - 0.0
27/08:00pm 12.5 9.4 0.0 42 5.2 N 6 13 3 7 1023.7 - 0.0
27/07:30pm 14.1 10.3 -0.7 36 6.2 N 9 13 5 7 1023.4 - 0.0
27/07:00pm 14.4 10.2 -0.8 35 6.4 N 11 13 6 7 1023.3 - 0.0
27/06:30pm 15.1 11.3 -1.0 33 6.7 N 9 11 5 6 1023.2 1023.4 0.0
27/06:00pm 15.8 12.0 -0.8 32 7.1 N 9 13 5 7 1023.0 - 0.0
27/05:30pm 17.2 13.1 -0.1 31 7.6 NW 11 17 6 9 1023.5 - 0.0
27/05:00pm 18.1 13.2 -0.2 29 8.0 WNW 15 22 8 12 1023.5 - 0.0
27/04:30pm 18.5 12.9 -0.3 28 8.3 NW 19 26 10 14 1023.5 - 0.0
27/04:00pm 18.5 13.3 0.2 29 8.1 NW 17 26 9 14 1023.6 - 0.0
27/03:30pm 19.0 14.2 0.1 28 8.4 WNW 15 24 8 13 1023.7 1024.0 0.0
27/03:00pm 18.5 12.9 0.2 29 8.1 NW 19 30 10 16 1023.9 - 0.0
27/02:30pm 18.5 12.9 1.1 31 7.9 NW 20 32 11 17 1024.0 - 0.0
27/02:00pm 17.9 12.3 1.4 33 7.5 NNW 20 30 11 16 1024.2 - 0.0
27/01:30pm 18.4 13.1 1.9 33 7.6 NW 19 30 10 16 1024.7 - 0.0
27/01:00pm 17.6 12.1 2.0 35 7.1 NW 20 28 11 15 1025.6 - 0.0
27/12:30pm 17.6 11.9 3.1 38 6.7 NNW 22 33 12 18 1026.0 1026.3 0.0
27/12:00pm 17.4 12.1 3.0 38 6.7 NNW 20 32 11 17 1026.6 - 0.0
27/11:30am 17.3 12.4 3.9 41 6.4 NNW 19 28 10 15 1027.0 - 0.0
27/11:00am 16.5 11.8 3.2 41 6.2 NNW 17 24 9 13 1027.1 - 0.0
27/10:30am 16.0 11.5 4.4 46 5.5 NNW 17 24 9 13 1027.5 - 0.0
27/10:00am 15.3 11.6 4.4 48 5.1 N 13 17 7 9 1027.7 - 0.0
27/09:30am 13.8 10.6 4.9 55 4.2 N 11 15 6 8 1027.7 1028.0 0.0
27/09:00am 12.0 8.8 5.0 62 3.3 NNE 11 15 6 8 1027.5 - 0.0
27/08:30am 10.0 6.6 4.2 67 2.6 NNE 11 13 6 7 1027.4 - 0.0
27/08:00am 8.5 5.0 3.6 71 2.1 NNE 11 13 6 7 1027.4 - 0.0
27/07:30am 7.7 3.6 4.1 78 1.6 NNE 15 17 8 9 1027.2 - 0.0
27/07:00am 3.3 -0.6 0.9 84 0.9 NNE 11 13 6 7 1027.0 - 0.0
27/06:30am 4.2 -0.3 -0.2 73 1.7 NNE 13 15 7 8 1026.6 1027.0 0.0
27/06:00am 8.3 4.4 3.4 71 2.1 NNE 13 15 7 8 1026.6 - 0.0
27/05:30am 8.4 4.8 4.8 78 1.6 N 13 15 7 8 1026.5 - 0.0
27/05:00am 3.8 -0.1 1.0 82 1.1 N 11 13 6 7 1026.4 - 0.0
27/04:30am 4.9 0.8 0.1 71 1.9 N 11 15 6 8 1026.4 - 0.0
27/04:23am 8.6 5.0 5.0 78 1.6 N 13 15 7 8 1026.4 - 0.0
27/04:00am 3.6 -0.4 0.8 82 1.1 NNE 11 13 6 7 1026.4 - 0.0
27/03:30am 3.8 -0.1 1.2 83 1.0 NNE 11 13 6 7 1026.6 1027.0 0.0
27/03:00am 4.0 0.8 0.9 80 1.2 NNE 7 9 4 5 1026.7 - 0.0
27/02:30am 4.5 1.4 1.2 79 1.3 NE 7 11 4 6 1027.1 - 0.0
27/02:00am 5.6 1.9 2.1 78 1.4 NNE 11 13 6 7 1027.1 - 0.0
27/01:30am 6.2 2.1 2.5 77 1.5 NE 13 17 7 9 1027.2 - 0.0
27/01:00am 5.3 2.5 -0.1 68 2.1 NNE 4 6 2 3 1027.4 - 0.0
27/12:30am 7.3 4.1 2.8 73 1.9 NNE 9 11 5 6 1027.6 1027.9 0.0
27/12:00am 8.0 4.6 2.0 66 2.5 NE 9 11 5 6 1027.8 - 0.0
 
Date/Time
EST
Temp
°C
App
Temp
°C
Dew
Point
Rel
Hum
%
Delta-T
°C
Wind Press
QNH
hPa
Press
MSL
hPa
Rain
since 9 am
mm
Dir
 
Spd
km/h
Gust
km/h
Spd
kts
Gust
kts
26/11:30pm 10.1 7.4 3.8 65 2.8 ENE 7 7 4 4 1028.1 - 0.0
26/11:00pm 8.5 5.7 1.9 63 2.8 ENE 6 7 3 4 1028.0 - 0.0
26/10:30pm 9.7 7.8 3.0 63 2.9 SE 2 11 1 6 1028.0 - 0.0
26/10:00pm 10.2 8.8 3.3 62 3.0 CALM 0 0 0 0 1028.0 - 0.0
26/09:30pm 9.7 7.1 3.0 63 2.9 SE 6 7 3 4 1027.9 1028.2 0.0
26/09:00pm 9.5 7.6 2.6 62 3.0 SSW 2 6 1 3 1027.7 - 0.0
26/08:30pm 11.1 9.7 3.4 59 3.4 CALM 0 0 0 0 1027.7 - 0.0
26/08:00pm 10.2 8.7 3.0 61 3.2 CALM 0 0 0 0 1027.5 - 0.0
26/07:30pm 10.8 9.4 3.4 60 3.3 CALM 0 0 0 0 1027.3 - 0.0
26/07:00pm 11.2 9.7 2.8 56 3.7 CALM 0 0 0 0 1027.1 - 0.0
26/06:30pm 12.5 9.8 2.9 52 4.3 SW 6 7 3 4 1026.9 1027.2 0.0
26/06:00pm 13.5 10.3 3.0 49 4.7 SW 9 11 5 6 1026.4 - 0.0
26/05:30pm 15.7 11.8 3.2 43 5.8 SW 13 15 7 8 1026.2 - 0.0
26/05:00pm 16.1 11.7 2.5 40 6.2 SW 15 20 8 11 1026.2 - 0.0
26/04:30pm 17.1 12.8 3.1 39 6.5 SW 15 20 8 11 1026.2 - 0.0
26/04:00pm 17.5 12.5 3.4 39 6.6 S 19 22 10 12 1026.1 - 0.0
26/03:30pm 16.5 11.8 3.2 41 6.1 WSW 17 22 9 12 1026.1 1026.4 0.0
26/03:00pm 17.6 13.5 4.2 41 6.4 W 15 20 8 11 1026.0 - 0.0
26/02:30pm 16.9 12.7 3.9 42 6.2 WSW 15 20 8 11 1026.0 - 0.0
26/02:00pm 16.6 11.8 4.6 45 5.7 WSW 19 22 10 12 1026.1 - 0.0
26/01:30pm 16.9 13.2 4.6 44 5.9 SSW 13 19 7 10 1026.5 - 0.0
26/01:00pm 16.2 12.8 6.1 51 5.0 SW 13 19 7 10 1026.9 - 0.0
26/12:30pm 15.9 12.6 6.3 53 4.7 SW 13 20 7 11 1027.5 1027.8 0.0
26/12:00pm 15.2 12.0 6.7 57 4.2 SW 13 19 7 10 1028.0 - 0.0
26/11:30am 14.7 11.6 7.3 61 3.7 SW 13 20 7 11 1028.3 - 0.0
26/11:00am 13.4 9.9 7.4 67 3.0 SSW 15 24 8 13 1028.6 - 0.0
26/10:30am 13.0 10.4 7.7 70 2.6 SSW 11 17 6 9 1028.7 - 0.0
26/10:00am 12.4 9.4 7.7 73 2.3 SSW 13 17 7 9 1028.6 - 0.0
26/09:30am 11.0 8.6 7.1 77 1.9 SW 9 13 5 7 1028.2 1028.5 0.0
26/09:00am 9.6 7.1 6.5 81 1.5 SW 9 11 5 6 1027.9 - 0.0
26/08:30am 8.1 5.4 5.7 85 1.1 WSW 9 9 5 5 1027.6 - 0.0
26/08:00am 6.6 4.3 4.9 89 0.8 W 6 7 3 4 1027.3 - 0.0
26/07:30am 5.7 3.6 4.0 89 0.7 W 4 9 2 5 1027.2 - 0.0
26/07:00am 5.8 3.2 4.1 89 0.7 W 7 9 4 5 1026.7 - 0.0
26/06:30am 6.1 3.1 4.3 88 0.8 W 9 9 5 5 1026.3 1026.6 0.0
26/06:00am 6.9 4.4 4.9 87 0.9 WSW 7 9 4 5 1025.8 - 0.0
26/05:30am 7.0 4.2 5.0 87 0.9 W 9 9 5 5 1025.4 - 0.0
26/05:00am 6.5 3.5 4.2 85 1.0 W 9 11 5 6 1025.2 - 0.0
26/04:30am 6.9 5.6 3.9 81 1.3 CALM 0 0 0 0 1025.0 - 0.0
26/04:00am 7.9 6.7 4.8 81 1.4 CALM 0 0 0 0 1025.0 - 0.0
26/03:30am 7.5 5.0 4.8 83 1.2 W 7 7 4 4 1024.8 1025.1 0.0
26/03:00am 6.4 3.8 3.0 79 1.4 W 6 9 3 5 1024.7 - 0.0
26/02:30am 5.8 3.1 2.4 79 1.4 WNW 6 7 3 4 1024.7 - 0.0
26/02:00am 5.8 3.6 1.3 73 1.8 WNW 2 6 1 3 1024.4 - 0.0
26/01:30am 8.3 5.6 3.8 73 2.0 WNW 7 9 4 5 1024.3 - 0.0
26/01:00am 8.6 5.7 4.6 76 1.8 NW 9 11 5 6 1024.3 - 0.0
26/12:30am 8.3 7.1 4.7 78 1.6 CALM 0 0 0 0 1024.2 1024.5 0.0
26/12:00am 8.4 6.1 4.8 78 1.6 W 6 7 3 4 1024.1 - 0.0
 
Date/Time
EST
Temp
°C
App
Temp
°C
Dew
Point
Rel
Hum
%
Delta-T
°C
Wind Press
QNH
hPa
Press
MSL
hPa
Rain
since 9 am
mm
Dir
 
Spd
km/h
Gust
km/h
Spd
kts
Gust
kts
25/11:30pm 7.4 4.2 3.3 75 1.8 W 9 11 5 6 1024.3 - 0.0
25/11:00pm 8.7 5.2 3.7 71 2.2 WNW 11 13 6 7 1024.2 - 0.0

Other Formats:

Comma delimited format used in spreadsheet applications
http://www.bom.gov.au/fwo/IDN60801/IDN60801.94691.axf

JavaScript Object Notation format (JSON) in row-major order
http://www.bom.gov.au/fwo/IDN60801/IDN60801.94691.json